Latest Weather Observations for Williamtown

IDN60901

Issued at 6:12 am EST Saturday 25 June 2016 (issued every 10 minutes, with the page automatically refreshed every 10 minutes)

About weather observations | Map of Sydney area stations | Latest observations for Sydney area | Other Formats
Station Details ID: 061078 Name: WILLIAMTOWN RAAF Lat: -32.79 Lon: 151.84 Height: 9.0 m
Data from the previous 72 hours. | See also: Recent months at Williamtown
Date/Time
EST
Temp
°C
App
Temp
°C
Dew
Point
°C
Rel
Hum
%
Delta-T
°C
Wind Press
QNH
hPa
Press
MSL
hPa
Rain since
9am
mm
Dir  Spd
km/h
Gust
km/h
Spd
kts
Gust
kts
25/06:00am 6.5 -1.1 0.3 64 2.4 WNW 30 39 16 21 1016.5 1016.5 0.0
25/05:30am 6.6 -1.1 0.2 63 2.5 WNW 30 41 16 22 1016.3 1016.3 0.0
25/05:00am 6.8 -0.9 0.1 62 2.6 WNW 30 35 16 19 1015.9 1015.9 0.0
25/04:30am 6.8 -0.9 0.1 62 2.6 WNW 30 37 16 20 1015.3 1015.3 0.0
25/04:00am 6.9 -0.8 -0.1 61 2.7 WNW 30 37 16 20 1014.8 1014.8 0.0
25/03:30am 7.3 -0.8 -0.5 57 3.0 WNW 32 41 17 22 1014.7 1014.7 0.0
25/03:00am 7.5 -0.3 -0.5 57 3.1 NW 30 41 16 22 1014.5 1014.5 0.0
25/02:30am 7.5 -0.7 -1.2 54 3.3 WNW 32 41 17 22 1014.1 1014.1 0.0
25/02:00am 7.5 0.1 -0.9 55 3.2 WNW 28 39 15 21 1013.9 1013.9 0.0
25/01:30am 7.8 -0.1 -1.8 50 3.6 WNW 30 35 16 19 1013.8 1013.8 0.0
25/01:00am 7.8 -0.1 -1.4 52 3.5 WNW 30 39 16 21 1013.2 1013.2 0.0
25/12:30am 7.6 -0.3 -1.4 53 3.4 WNW 30 41 16 22 1013.0 1013.0 0.0
25/12:00am 8.0 -0.5 -1.5 51 3.6 WNW 33 41 18 22 1012.7 1012.7 0.0
 
Date/Time
EST
Temp
°C
App
Temp
°C
Dew
Point
°C
Rel
Hum
%
Delta-T
°C
Wind Press
QNH
hPa
Press
MSL
hPa
Rain since
9am
mm
Dir  Spd
km/h
Gust
km/h
Spd
kts
Gust
kts
24/11:30pm 7.8 1.4 -1.4 52 3.5 NW 22 30 12 16 1012.7 1012.7 0.0
24/11:00pm 8.9 0.3 -2.3 45 4.2 WNW 33 46 18 25 1012.3 1012.3 0.0
24/10:30pm 9.0 1.0 -2.1 45 4.2 WNW 30 39 16 21 1012.2 1012.2 0.0
24/10:00pm 8.6 0.8 -1.0 51 3.7 WNW 30 37 16 20 1011.9 1011.8 0.0
24/09:30pm 7.9 1.4 0.6 60 2.9 NW 24 30 13 16 1011.5 1011.4 0.0
24/09:00pm 8.3 1.6 1.2 61 2.9 WNW 26 33 14 18 1011.6 1011.5 0.0
24/08:30pm 8.5 2.2 1.7 62 2.8 WNW 24 35 13 19 1011.2 1011.1 0.0
24/08:00pm 8.9 1.0 2.5 64 2.7 WNW 33 46 18 25 1010.5 1010.4 0.0
24/07:30pm 8.9 1.1 3.1 67 2.5 NW 33 39 18 21 1010.1 1010.0 0.0
24/07:00pm 8.9 2.5 3.3 68 2.4 WNW 26 33 14 18 1010.1 1010.0 0.0
24/06:30pm 8.8 2.9 3.7 70 2.2 NW 24 35 13 19 1009.5 1009.4 0.0
24/06:00pm 9.2 1.5 3.2 66 2.6 WNW 33 43 18 23 1009.0 1008.9 0.0
24/05:30pm 9.9 2.2 3.5 64 2.8 WNW 33 46 18 25 1008.0 1008.0 0.0
24/05:11pm 10.2 1.2 4.6 68 2.5 WNW 41 59 22 32 1007.2 1007.2 0.0
24/05:05pm 10.2 -1.6 4.9 69 2.4 WNW 56 85 30 46 1006.7 1006.7 0.0
24/05:00pm 10.4 -1.6 4.6 67 2.6 WNW 57 85 31 46 1006.9 1006.9 0.0
24/04:59pm 10.6 -1.5 4.4 65 2.8 WNW 57 85 31 46 1006.8 1006.8 0.0
24/04:52pm 13.7 2.7 -1.7 34 6.2 WNW 46 74 25 40 1006.4 1006.4 0.0
24/04:39pm 13.7 4.5 -1.3 35 6.1 WNW 37 56 20 30 1006.0 1006.0 0.0
24/04:30pm 14.2 4.2 -1.9 33 6.5 WNW 41 57 22 31 1005.8 1005.8 0.0
24/04:17pm 14.8 6.7 -2.8 29 7.0 WNW 30 48 16 26 1005.6 1005.6 0.0
24/04:00pm 15.2 6.8 -2.8 29 7.2 WNW 32 48 17 26 1005.4 1005.4 0.0
24/03:41pm 15.6 5.6 -4.6 24 7.8 WNW 39 61 21 33 1005.0 1005.0 0.0
24/03:30pm 15.8 5.5 -3.7 26 7.7 WNW 41 56 22 30 1005.0 1005.0 0.0
24/03:00pm 16.3 7.1 -1.5 29 7.4 WNW 37 59 20 32 1004.4 1004.4 0.0
24/02:56pm 16.2 7.3 -1.7 29 7.4 WNW 35 59 19 32 1004.4 1004.4 0.0
24/02:30pm 15.8 7.1 4.0 45 5.5 WNW 39 50 21 27 1004.7 1004.7 0.0
24/02:00pm 15.1 7.7 5.2 51 4.7 WNW 33 48 18 26 1004.8 1004.8 0.0
24/01:30pm 15.2 6.9 6.1 54 4.4 WNW 39 48 21 26 1004.5 1004.5 0.0
24/01:00pm 14.7 7.3 6.7 58 3.9 NW 35 50 19 27 1004.5 1004.5 0.0
24/12:30pm 14.9 6.7 6.5 57 4.1 WNW 39 57 21 31 1004.9 1004.9 0.0
24/12:00pm 15.2 8.4 6.9 57 4.1 WNW 32 50 17 27 1005.0 1005.0 0.0
24/11:30am 14.0 3.5 5.6 57 4.0 W 50 74 27 40 1005.9 1005.9 0.0
24/11:24am 15.3 4.5 6.0 54 4.5 W 52 74 28 40 1005.6 1005.6 0.0
24/11:23am 15.7 4.8 5.7 51 4.8 W 52 74 28 40 1005.5 1005.5 0.0
24/11:00am 18.8 8.7 3.8 37 7.1 WNW 46 63 25 34 1004.8 1004.8 0.0
24/10:30am 18.0 7.1 3.8 39 6.7 WNW 50 67 27 36 1005.0 1005.0 0.0
24/10:00am 17.9 8.5 4.2 40 6.5 WNW 43 57 23 31 1005.0 1005.0 0.0
24/09:30am 17.2 7.5 4.0 41 6.2 NW 44 61 24 33 1005.0 1005.0 0.0
24/09:00am 16.6 8.5 5.4 47 5.4 NW 37 50 20 27 1005.0 1005.0 0.0
24/08:30am 15.8 8.1 5.3 49 5.0 NW 35 54 19 29 1004.9 1004.9 0.0
24/08:12am 15.5 9.1 5.2 50 4.9 NW 28 48 15 26 1005.0 1005.0 0.0
24/08:00am 15.1 9.3 6.2 55 4.3 NNW 26 41 14 22 1005.0 1005.0 0.0
24/07:30am 14.4 10.1 7.1 61 3.6 NW 19 30 10 16 1004.8 1004.8 0.0
24/07:00am 14.0 11.1 8.0 67 3.0 NW 13 20 7 11 1005.0 1005.0 0.0
24/06:30am 14.2 10.2 8.4 68 2.9 NW 19 28 10 15 1004.9 1004.9 0.0
24/06:00am 14.0 11.2 8.4 69 2.8 NNW 13 19 7 10 1005.1 1005.1 0.0
24/05:30am 13.3 9.9 9.0 75 2.2 NW 17 28 9 15 1004.8 1004.8 0.0
24/05:00am 13.3 10.1 8.5 72 2.4 N 15 19 8 10 1004.6 1004.6 0.0
24/04:30am 9.1 7.1 7.2 88 0.9 NE 7 11 4 6 1004.7 1004.7 0.0
24/04:00am 9.6 7.6 7.3 85 1.1 NE 7 9 4 5 1004.9 1004.9 0.0
24/03:30am 9.9 7.6 7.4 84 1.2 NNE 9 13 5 7 1005.2 1005.2 0.0
24/03:00am 10.0 7.8 7.7 86 1.1 NNE 9 13 5 7 1005.2 1005.2 0.0
24/02:30am 9.9 7.3 7.6 85 1.1 NNE 11 13 6 7 1005.4 1005.4 0.0
24/02:00am 9.7 7.9 8.0 89 0.8 NNE 7 11 4 6 1005.9 1005.9 0.0
24/01:30am 9.4 8.8 7.5 88 0.9 CALM 0 0 0 0 1006.1 1006.1 0.0
24/01:00am 9.4 8.5 7.7 89 0.8 N 2 7 1 4 1006.2 1006.2 0.0
24/12:30am 9.1 6.8 7.6 90 0.7 NW 9 11 5 6 1006.7 1006.7 0.0
24/12:00am 10.7 7.6 7.4 80 1.6 N 13 15 7 8 1006.8 1006.8 0.0
 
Date/Time
EST
Temp
°C
App
Temp
°C
Dew
Point
°C
Rel
Hum
%
Delta-T
°C
Wind Press
QNH
hPa
Press
MSL
hPa
Rain since
9am
mm
Dir  Spd
km/h
Gust
km/h
Spd
kts
Gust
kts
23/11:30pm 9.7 7.3 7.2 84 1.2 N 9 15 5 8 1007.0 1007.0 0.0
23/11:00pm 10.4 7.7 7.3 81 1.5 NNE 11 13 6 7 1007.2 1007.2 0.0
23/10:30pm 10.8 8.5 7.3 79 1.7 NE 9 11 5 6 1007.6 1007.6 0.0
23/10:00pm 11.0 8.3 7.5 79 1.7 NE 11 13 6 7 1007.8 1007.8 0.0
23/09:30pm 11.8 9.4 7.2 73 2.2 NNE 9 13 5 7 1008.0 1008.0 0.0
23/09:00pm 13.6 10.6 6.0 60 3.6 N 11 13 6 7 1008.0 1008.0 0.0
23/08:30pm 13.6 9.8 6.0 60 3.6 N 15 19 8 10 1008.0 1008.0 0.0
23/08:00pm 14.1 10.8 6.2 59 3.8 N 13 17 7 9 1008.3 1008.3 0.0
23/07:30pm 14.4 10.7 6.3 58 3.9 N 15 19 8 10 1008.3 1008.3 0.0
23/07:00pm 13.9 10.8 7.4 65 3.2 NNE 13 15 7 8 1008.8 1008.7 0.0
23/06:30pm 14.3 11.5 6.9 61 3.6 N 11 15 6 8 1008.9 1008.8 0.0
23/06:00pm 15.3 12.0 6.2 54 4.4 N 13 15 7 8 1008.8 1008.7 0.0
23/05:30pm 15.6 11.8 5.8 52 4.7 NNW 15 20 8 11 1008.8 1008.7 0.0
23/05:00pm 16.0 12.1 5.3 49 5.1 NNW 15 26 8 14 1008.9 1008.8 0.0
23/04:30pm 15.4 12.6 7.1 57 4.1 N 11 22 6 12 1008.9 1008.8 0.0
23/04:00pm 15.5 13.8 8.2 62 3.7 NNW 7 11 4 6 1009.2 1009.1 0.0
23/03:30pm 16.2 13.4 6.9 54 4.6 WNW 11 13 6 7 1009.3 1009.2 0.0
23/03:00pm 16.5 14.1 6.8 52 4.8 WNW 9 15 5 8 1009.6 1009.5 0.0
23/02:30pm 17.4 11.7 5.1 44 5.9 NW 24 33 13 18 1009.8 1009.7 0.0
23/02:00pm 17.3 10.0 4.7 43 6.0 NW 32 41 17 22 1010.1 1010.0 0.0
23/01:30pm 17.9 10.1 4.7 41 6.3 NW 35 43 19 23 1010.2 1010.1 0.0
23/01:00pm 16.5 9.6 4.6 45 5.6 NW 30 43 16 23 1011.0 1010.9 0.0
23/12:30pm 16.8 9.6 5.1 46 5.6 NW 32 44 17 24 1011.6 1011.5 0.0
23/12:00pm 15.9 9.1 5.2 49 5.1 WNW 30 41 16 22 1012.1 1012.1 0.0
23/11:30am 14.9 9.0 5.7 54 4.4 WNW 26 33 14 18 1012.9 1012.9 0.0
23/11:00am 15.0 8.3 5.5 53 4.5 WNW 30 37 16 20 1013.1 1013.1 0.0
23/10:30am 14.4 9.3 6.0 57 4.0 NW 22 28 12 15 1013.8 1013.8 0.0
23/10:00am 13.6 9.6 6.5 62 3.4 WNW 17 20 9 11 1014.2 1014.2 0.0
23/09:30am 13.2 8.7 7.0 66 3.0 WNW 20 26 11 14 1014.3 1014.3 0.0
23/09:00am 11.9 8.7 6.9 71 2.4 NW 13 17 7 9 1014.4 1014.4 0.0
23/08:30am 11.7 8.9 6.9 72 2.3 NNW 11 17 6 9 1014.0 1014.0 0.0
23/08:00am 9.9 7.1 6.9 81 1.4 NNW 11 13 6 7 1014.2 1014.2 0.0
23/07:30am 7.4 5.1 5.6 88 0.8 NNE 7 9 4 5 1014.1 1014.1 0.0
23/07:00am 7.0 3.8 4.9 86 0.9 WNW 11 17 6 9 1013.6 1013.6 0.0
23/06:30am 7.5 5.2 5.5 87 0.9 NW 7 13 4 7 1013.4 1013.4 0.0
23/06:00am 6.0 3.5 4.8 92 0.5 NNW 7 9 4 5 1012.9 1012.9 0.0
23/05:30am 6.8 4.5 4.7 86 0.9 NW 6 9 3 5 1013.0 1013.0 0.0
23/05:00am 8.0 5.8 6.0 87 0.9 N 7 9 4 5 1013.0 1013.0 0.0
23/04:30am 7.9 4.5 5.7 86 1.0 NW 13 15 7 8 1012.9 1012.9 0.0
23/04:00am 10.2 8.9 5.9 74 2.0 WNW 2 7 1 4 1013.2 1013.2 0.0
23/03:30am 9.2 5.4 5.7 79 1.6 WNW 15 17 8 9 1013.1 1013.1 0.0
23/03:00am 9.8 5.6 5.9 77 1.8 WNW 17 19 9 10 1013.6 1013.6 0.0
23/02:30am 11.0 6.2 5.6 69 2.5 WNW 20 26 11 14 1013.4 1013.4 0.0
23/02:00am 10.8 7.3 5.6 70 2.4 WNW 13 19 7 10 1013.5 1013.5 0.0
23/01:30am 11.0 7.2 5.6 69 2.5 W 15 19 8 10 1012.9 1012.9 0.0
23/01:00am 10.8 6.2 5.6 70 2.4 WNW 19 24 10 13 1013.6 1013.6 0.0
23/12:30am 12.0 8.9 5.5 64 3.0 WNW 11 15 6 8 1013.2 1013.2 0.0
23/12:00am 12.6 7.0 5.3 61 3.4 WNW 24 33 13 18 1012.9 1012.9 0.0
 
Date/Time
EST
Temp
°C
App
Temp
°C
Dew
Point
°C
Rel
Hum
%
Delta-T
°C
Wind Press
QNH
hPa
Press
MSL
hPa
Rain since
9am
mm
Dir  Spd
km/h
Gust
km/h
Spd
kts
Gust
kts
22/11:30pm 12.8 8.0 5.5 61 3.4 WNW 20 30 11 16 1013.1 1013.1 0.0
22/11:00pm 13.0 8.4 5.5 60 3.5 WNW 19 32 10 17 1012.8 1012.8 0.0
22/10:30pm 13.5 6.1 5.1 57 3.9 WNW 33 44 18 24 1012.5 1012.5 0.0
22/10:00pm 13.7 7.0 5.4 57 3.9 NW 30 39 16 21 1012.4 1012.4 0.0
22/09:30pm 13.8 7.8 5.5 57 3.9 WNW 26 32 14 17 1012.5 1012.5 0.0
22/09:00pm 13.8 8.6 5.3 56 4.0 WNW 22 30 12 16 1012.3 1012.3 0.0
22/08:36pm 14.1 7.3 5.1 54 4.2 WNW 30 48 16 26 1011.7 1011.6 0.0
22/08:30pm 14.5 7.3 4.9 52 4.5 WNW 32 43 17 23 1011.6 1011.5 0.0
22/08:00pm 14.7 6.9 5.1 52 4.5 WNW 35 50 19 27 1011.0 1010.9 0.0
22/07:46pm 14.6 7.3 5.3 53 4.4 WNW 33 52 18 28 1010.7 1010.6 0.0
22/07:30pm 14.9 6.8 5.1 52 4.6 WNW 37 50 20 27 1010.7 1010.6 0.0
22/07:00pm 15.2 6.7 5.0 50 4.8 WNW 39 54 21 29 1010.4 1010.3 0.0
22/06:30pm 15.4 8.0 5.0 50 4.9 WNW 33 50 18 27 1009.9 1009.8 0.0
22/06:07pm 15.5 7.3 4.9 49 5.0 WNW 37 56 20 30 1009.2 1009.1 0.0
22/06:00pm 15.7 7.5 4.6 47 5.2 WNW 37 52 20 28 1009.0 1008.9 0.0
22/05:53pm 15.4 8.0 5.0 50 4.9 WNW 33 52 18 28 1008.8 1008.7 0.0
22/05:30pm 16.0 9.5 4.5 46 5.4 WNW 28 37 15 20 1008.7 1008.6 0.0
22/05:00pm 16.2 10.0 4.5 45 5.5 WNW 26 39 14 21 1008.3 1008.3 0.0
22/04:34pm 16.8 9.5 4.3 43 5.9 WNW 32 54 17 29 1007.9 1007.9 0.0
22/04:30pm 16.5 9.6 4.4 44 5.7 WNW 30 39 16 21 1007.9 1007.9 0.0
22/04:00pm 17.8 10.5 4.3 40 6.4 NW 32 46 17 25 1007.4 1007.4 0.0
22/03:30pm 18.6 11.0 4.1 38 6.9 WNW 33 56 18 30 1007.1 1007.1 0.0
22/03:26pm 18.6 10.7 4.1 38 6.9 WNW 35 56 19 30 1007.0 1007.0 0.0
22/03:00pm 19.0 10.7 4.4 38 7.0 WNW 37 52 20 28 1006.6 1006.6 0.0
22/02:30pm 19.0 10.5 5.3 40 6.7 NW 39 54 21 29 1006.2 1006.2 0.0
22/02:00pm 19.1 10.3 5.4 40 6.7 WNW 41 56 22 30 1006.4 1006.4 0.0
22/01:30pm 19.5 12.3 6.0 41 6.7 WNW 33 50 18 27 1006.5 1006.5 0.0
22/01:00pm 18.5 9.9 6.5 45 6.0 WNW 41 56 22 30 1006.4 1006.4 0.0
22/12:30pm 19.1 11.6 6.5 43 6.3 WNW 35 54 19 29 1006.8 1006.8 0.0
22/12:11pm 18.4 10.2 6.6 46 5.9 WNW 39 61 21 33 1006.6 1006.6 0.0
22/12:00pm 18.7 10.7 7.5 48 5.7 WNW 39 56 21 30 1006.5 1006.5 0.0
22/11:33am 17.9 9.1 7.2 49 5.4 WNW 43 61 23 33 1006.7 1006.7 0.0
22/11:30am 17.8 8.7 7.0 49 5.4 WNW 44 59 24 32 1006.8 1006.8 0.0
22/11:08am 18.2 9.8 7.3 49 5.5 WNW 41 59 22 32 1006.6 1006.6 0.0
22/11:00am 17.7 8.4 7.4 51 5.2 WNW 46 59 25 32 1006.5 1006.5 0.0
22/10:30am 17.3 6.4 7.4 52 5.0 NW 54 74 29 40 1006.1 1006.1 0.0
22/10:02am 17.6 6.8 7.5 51 5.1 WNW 54 72 29 39 1006.3 1006.3 0.0
22/10:00am 17.5 6.3 7.6 52 5.0 NW 56 72 30 39 1006.3 1006.3 0.0
22/09:41am 17.1 8.1 7.1 51 5.0 WNW 44 65 24 35 1006.4 1006.4 0.0
22/09:30am 16.8 7.5 7.4 54 4.7 NW 46 61 25 33 1006.4 1006.4 0.0
22/09:00am 16.2 6.1 7.2 55 4.5 WNW 50 70 27 38 1006.3 1006.3 0.0
22/08:30am 15.7 6.8 7.0 56 4.3 WNW 43 67 23 36 1006.1 1006.1 0.0
22/08:26am 15.6 7.5 6.9 56 4.3 WNW 39 57 21 31 1006.1 1006.1 0.0
22/08:00am 14.7 7.2 6.5 58 4.0 WNW 35 48 19 26 1005.9 1005.9 0.0
22/07:30am 14.3 7.2 6.2 58 3.9 WNW 33 43 18 23 1005.6 1005.6 0.0
22/07:16am 14.3 8.0 5.7 56 4.1 WNW 28 46 15 25 1005.5 1005.5 0.0
22/07:00am 14.4 8.4 5.3 54 4.3 WNW 26 37 14 20 1005.4 1005.4 0.0
22/06:30am 14.5 8.5 5.2 53 4.4 NW 26 35 14 19 1004.9 1004.9 0.0

Latest Capital City Observations: Canberra | Sydney | Melbourne | Brisbane | Adelaide | Perth | Hobart | Darwin

Other Formats:

Comma delimited format used in spreadsheet applications
http://www.bom.gov.au/fwo/IDN60901/IDN60901.94776.axf

JavaScript Object Notation format (JSON) in row-major order
http://www.bom.gov.au/fwo/IDN60901/IDN60901.94776.json